Time;durP1;ratioP1;P1;durP2;ratioP2;P2;SDS_P1;SDS_P2;PMS_P1;PMS_P2;Temp;Humidity;BMP_temperature;BMP_pressure;BME280_temperature;BME280_humidity;BME280_pressure;Samples;Min_cycle;Max_cycle;Signal;HPM_P1;HPM_P2
2022/10/26 00:00:26;;;;;;;16.43;6.40;;;11.10;99.90;10.40;100334;;;;561425;252;24276;-82
2022/10/26 00:02:54;;;;;;;9.30;5.93;;;11.00;99.90;10.40;100336;;;;552418;256;24254;-83
2022/10/26 00:05:22;;;;;;;8.60;5.57;;;11.00;99.90;10.30;100330;;;;563202;250;24103;-82
2022/10/26 00:07:53;;;;;;;13.73;6.47;;;11.00;99.90;10.30;100325;;;;561620;251;24103;-81
2022/10/26 00:10:20;;;;;;;12.73;6.17;;;11.00;99.90;10.30;100336;;;;562802;251;24117;-79
2022/10/26 00:12:54;;;;;;;13.13;5.83;;;11.00;99.90;10.40;100340;;;;552596;255;24231;-80
2022/10/26 00:15:18;;;;;;;10.00;6.47;;;11.00;99.90;10.40;100346;;;;549867;256;24196;-80
2022/10/26 00:17:49;;;;;;;10.00;5.47;;;11.10;99.90;10.50;100348;;;;569085;249;24213;-80
2022/10/26 00:20:14;;;;;;;13.87;9.37;;;11.20;99.90;10.50;100341;;;;556279;252;35621;-81
2022/10/26 00:22:42;;;;;;;11.73;7.67;;;11.20;99.90;10.60;100340;;;;572204;247;24188;-81
2022/10/26 00:25:13;;;;;;;15.23;7.20;;;11.30;99.90;10.70;100341;;;;551945;256;24139;-82
2022/10/26 00:27:38;;;;;;;9.57;6.77;;;11.30;99.90;10.70;100342;;;;561933;251;24136;-81
2022/10/26 00:30:06;;;;;;;12.70;8.03;;;11.40;99.90;10.80;100340;;;;551882;256;24165;-81
2022/10/26 00:32:34;;;;;;;12.17;7.80;;;11.40;99.90;10.80;100337;;;;557001;256;24226;-81
2022/10/26 00:35:05;;;;;;;20.37;7.80;;;11.50;99.90;10.80;100344;;;;568861;251;25169;-80
2022/10/26 00:37:30;;;;;;;12.70;7.67;;;11.50;99.90;10.90;100339;;;;551679;256;24196;-80
2022/10/26 00:39:58;;;;;;;14.23;7.40;;;11.50;99.90;10.90;100340;;;;551892;256;24184;-80
2022/10/26 00:42:26;;;;;;;9.33;7.70;;;11.60;99.90;10.90;100339;;;;561783;247;24262;-80
2022/10/26 00:44:57;;;;;;;10.07;6.90;;;11.60;99.90;11.00;100344;;;;551648;256;24226;-81
2022/10/26 00:47:31;;;;;;;9.23;6.80;;;11.60;99.90;11.00;100345;;;;551755;256;24163;-81
2022/10/26 00:49:58;;;;;;;7.83;6.93;;;11.60;99.90;11.00;100342;;;;561946;251;24205;-82
2022/10/26 00:52:23;;;;;;;15.77;7.13;;;11.60;99.90;11.00;100344;;;;559622;256;24163;-82
2022/10/26 00:54:54;;;;;;;14.97;7.47;;;11.70;99.90;11.00;100345;;;;551923;256;24292;-82
2022/10/26 00:57:22;;;;;;;13.40;7.23;;;11.70;99.90;11.00;100347;;;;569508;250;25172;-81
2022/10/26 00:59:50;;;;;;;11.03;7.03;;;11.70;99.90;11.10;100348;;;;553845;256;24150;-80
2022/10/26 01:02:15;;;;;;;11.30;6.83;;;11.80;99.90;11.10;100348;;;;551392;256;24155;-81
2022/10/26 01:04:43;;;;;;;7.37;6.17;;;11.80;99.90;11.10;100346;;;;561766;251;24217;-81
2022/10/26 01:07:11;;;;;;;10.07;6.67;;;11.80;99.90;11.10;100346;;;;560910;256;24221;-81
2022/10/26 01:09:38;;;;;;;13.17;6.37;;;11.80;99.90;11.20;100346;;;;551647;256;24166;-82
2022/10/26 01:12:06;;;;;;;20.03;7.13;;;11.80;99.90;11.20;100351;;;;568504;251;24178;-80
2022/10/26 01:14:37;;;;;;;7.40;6.17;;;11.80;99.90;11.20;100351;;;;551528;256;24246;-81
2022/10/26 01:17:14;;;;;;;12.13;6.53;;;11.80;99.90;11.20;100346;;;;552121;255;24162;-81
2022/10/26 01:20:19;;;;;;;9.80;6.33;;;11.90;99.90;11.20;100350;;;;562966;251;24164;-80
2022/10/26 01:22:57;;;;;;;10.23;6.27;;;11.90;99.90;11.20;100349;;;;552591;255;24159;-80
2022/10/26 01:25:39;;;;;;;8.83;5.80;;;11.90;99.90;11.20;100353;;;;550856;251;24156;-80
2022/10/26 01:28:39;;;;;;;11.40;6.30;;;11.90;99.90;11.20;100349;;;;568996;249;24120;-80
2022/10/26 01:31:07;;;;;;;13.97;6.57;;;11.90;99.90;11.20;100351;;;;560047;256;24161;-80
2022/10/26 01:33:38;;;;;;;9.47;6.03;;;11.90;99.90;11.20;100352;;;;550459;255;24154;-80
2022/10/26 01:36:39;;;;;;;11.10;6.30;;;11.90;99.90;11.20;100352;;;;561968;251;24212;-80
2022/10/26 01:39:16;;;;;;;15.07;6.40;;;11.90;99.90;11.20;100356;;;;552043;256;24180;-79
2022/10/26 01:41:50;;;;;;;8.63;5.37;;;11.90;99.90;11.20;100350;;;;551693;256;24167;-80
2022/10/26 01:44:29;;;;;;;8.67;5.73;;;11.90;99.90;11.20;100343;;;;562237;251;24123;-80
2022/10/26 01:47:00;;;;;;;14.00;6.37;;;11.90;99.90;11.20;100346;;;;551944;256;24205;-80
2022/10/26 01:49:28;;;;;;;10.23;6.13;;;11.90;99.90;11.20;100347;;;;554320;255;24258;-80
2022/10/26 01:51:56;;;;;;;11.47;6.30;;;11.80;99.90;11.20;100344;;;;570412;251;24219;-82
2022/10/26 01:54:24;;;;;;;9.60;5.87;;;11.80;99.90;11.20;100344;;;;552593;256;24143;-81
2022/10/26 01:56:55;;;;;;;8.50;5.93;;;11.80;99.90;11.20;100341;;;;552469;256;24169;-81
2022/10/26 01:59:54;;;;;;;8.63;6.30;;;11.80;99.90;11.20;100339;;;;562418;251;24175;-81
2022/10/26 02:02:49;;;;;;;10.37;6.70;;;11.80;99.90;11.10;100345;;;;554942;256;24157;-81
2022/10/26 02:05:53;;;;;;;7.73;6.10;;;11.80;99.90;11.10;100339;;;;561045;255;24189;-80
2022/10/26 02:08:30;;;;;;;8.63;5.93;;;11.80;99.90;11.10;100340;;;;563121;251;24150;-78
2022/10/26 02:11:34;;;;;;;7.97;5.73;;;11.80;99.90;11.10;100354;;;;551537;256;24206;-79
2022/10/26 02:14:20;;;;;;;8.87;6.60;;;11.70;99.90;11.00;100349;;;;571687;251;24147;-81
2022/10/26 02:16:57;;;;;;;9.03;5.57;;;11.70;99.90;11.00;100355;;;;554276;256;24248;-80
2022/10/26 02:19:37;;;;;;;11.30;6.43;;;11.60;99.90;11.00;100353;;;;550299;255;24259;-79
2022/10/26 02:22:14;;;;;;;9.60;5.23;;;11.60;99.90;10.90;100355;;;;561926;251;24173;-80
2022/10/26 02:24:42;;;;;;;10.13;6.63;;;11.60;99.90;10.80;100355;;;;551581;256;24159;-80
2022/10/26 02:27:11;;;;;;;11.40;6.57;;;11.50;99.90;10.80;100356;;;;571170;248;24166;-80
2022/10/26 02:29:42;;;;;;;7.53;6.13;;;11.50;99.90;10.70;100352;;;;563783;250;24163;-80
2022/10/26 02:32:08;;;;;;;12.83;7.07;;;11.40;99.90;10.70;100356;;;;571711;251;24257;-80
2022/10/26 02:34:36;;;;;;;11.67;6.10;;;11.30;99.90;10.60;100351;;;;563515;251;24165;-79
2022/10/26 02:37:04;;;;;;;9.53;6.20;;;11.30;99.90;10.60;100354;;;;562493;256;24153;-81
2022/10/26 02:39:32;;;;;;;10.67;6.97;;;11.30;99.90;10.50;100352;;;;552830;256;24202;-80
2022/10/26 02:42:00;;;;;;;11.17;7.67;;;11.20;99.90;10.40;100364;;;;563001;251;24150;-80
2022/10/26 02:44:31;;;;;;;12.13;7.83;;;11.10;99.90;10.40;100373;;;;562332;252;24182;-80
2022/10/26 02:46:59;;;;;;;11.67;7.90;;;11.00;99.90;10.40;100369;;;;552580;256;24166;-80
2022/10/26 02:49:27;;;;;;;15.77;8.73;;;11.00;99.90;10.40;100373;;;;562780;251;24120;-79
2022/10/26 02:52:15;;;;;;;14.03;9.40;;;11.00;99.90;10.40;100373;;;;560593;251;24125;-81
2022/10/26 02:55:14;;;;;;;13.23;9.80;;;11.00;99.90;10.30;100367;;;;562972;251;24186;-81
2022/10/26 02:57:42;;;;;;;13.47;9.07;;;11.00;99.90;10.30;100368;;;;562444;256;24133;-82
2022/10/26 03:00:13;;;;;;;16.17;9.53;;;10.90;99.90;10.20;100366;;;;551356;255;24157;-81
2022/10/26 03:02:43;;;;;;;15.23;9.17;;;10.90;99.90;10.20;100374;;;;562861;251;24166;-82
2022/10/26 03:05:20;;;;;;;17.33;9.63;;;10.80;99.90;10.10;100382;;;;552744;256;24156;-80
2022/10/26 03:07:48;;;;;;;22.63;10.20;;;10.80;99.90;10.00;100378;;;;551639;255;24220;-82
2022/10/26 03:10:16;;;;;;;16.90;8.93;;;10.70;99.90;10.00;100373;;;;569985;251;24133;-81
2022/10/26 03:12:44;;;;;;;16.80;10.00;;;10.70;99.90;10.00;100374;;;;552732;256;24166;-82
2022/10/26 03:15:12;;;;;;;22.90;10.90;;;10.60;99.90;10.00;100375;;;;553184;256;24149;-81
2022/10/26 03:17:40;;;;;;;14.87;10.10;;;10.60;99.90;9.90;100367;;;;562698;251;24145;-80
2022/10/26 03:20:08;;;;;;;23.27;11.70;;;10.60;99.90;9.90;100365;;;;570734;248;24130;-80
2022/10/26 03:22:40;;;;;;;18.83;11.73;;;10.60;99.90;9.80;100368;;;;560938;255;24192;-81
2022/10/26 03:25:04;;;;;;;20.17;12.33;;;10.50;99.90;9.80;100363;;;;561136;252;24153;-82
2022/10/26 03:27:33;;;;;;;21.90;11.57;;;10.40;99.90;9.70;100356;;;;552480;256;24181;-82
2022/10/26 03:30:00;;;;;;;29.23;13.13;;;10.40;99.90;9.70;100370;;;;562707;251;24117;-82
2022/10/26 03:32:28;;;;;;;25.83;11.23;;;10.40;99.90;9.70;100368;;;;570282;248;24159;-83
2022/10/26 03:34:56;;;;;;;19.23;12.00;;;10.30;99.90;9.60;100376;;;;552404;256;25293;-81
2022/10/26 03:37:24;;;;;;;20.83;12.97;;;10.30;99.90;9.60;100378;;;;562878;251;24100;-82
2022/10/26 03:39:52;;;;;;;19.43;12.13;;;10.30;99.90;9.60;100374;;;;570740;247;24122;-82
2022/10/26 03:42:20;;;;;;;19.77;12.20;;;10.20;99.90;9.50;100373;;;;552984;255;24207;-81
2022/10/26 03:44:47;;;;;;;22.23;12.50;;;10.20;99.90;9.50;100374;;;;563050;251;25167;-80
2022/10/26 03:47:15;;;;;;;29.77;12.57;;;10.20;99.90;9.50;100375;;;;570360;248;24121;-82
2022/10/26 03:49:43;;;;;;;23.70;13.70;;;10.10;99.90;9.40;100372;;;;552877;256;24193;-80
2022/10/26 03:52:12;;;;;;;19.63;12.97;;;10.10;99.90;9.40;100372;;;;562626;251;24152;-81
2022/10/26 03:54:40;;;;;;;27.23;14.17;;;10.00;99.90;9.30;100380;;;;569948;248;24146;-81
2022/10/26 03:57:08;;;;;;;22.70;13.03;;;10.00;99.90;9.30;100381;;;;552288;256;24163;-79
2022/10/26 03:59:36;;;;;;;25.67;12.67;;;10.00;99.90;9.30;100386;;;;562037;251;24186;-80
2022/10/26 04:02:04;;;;;;;21.73;13.50;;;10.00;99.90;9.30;100388;;;;569625;248;24135;-79
2022/10/26 04:04:32;;;;;;;22.67;13.00;;;9.90;99.90;9.30;100389;;;;551734;256;24135;-80
2022/10/26 04:06:59;;;;;;;20.70;13.17;;;10.00;99.90;9.40;100397;;;;570576;247;24135;-81
2022/10/26 04:09:27;;;;;;;23.33;13.27;;;10.00;99.90;9.50;100385;;;;569989;248;24114;-81
2022/10/26 04:11:55;;;;;;;32.30;13.83;;;10.10;99.90;9.50;100385;;;;552136;256;24279;-80
2022/10/26 04:14:23;;;;;;;31.13;14.43;;;10.10;99.90;9.50;100387;;;;562463;251;24135;-81
2022/10/26 04:16:51;;;;;;;30.73;20.93;;;10.10;99.90;9.40;100387;;;;564925;248;46205;-81
2022/10/26 04:19:19;;;;;;;38.03;20.83;;;10.10;99.90;9.50;100388;;;;551993;256;24240;-80
2022/10/26 04:21:47;;;;;;;35.20;17.03;;;10.10;99.90;9.50;100397;;;;562531;251;24130;-81
2022/10/26 04:24:15;;;;;;;26.17;16.33;;;10.20;99.90;9.60;100406;;;;569864;248;24100;-81
2022/10/26 04:26:44;;;;;;;23.10;13.90;;;10.30;99.90;9.70;100399;;;;552015;256;24160;-80
2022/10/26 04:29:12;;;;;;;27.10;13.97;;;10.40;99.90;9.80;100407;;;;562942;251;24133;-80
2022/10/26 04:31:40;;;;;;;25.80;15.37;;;10.50;99.90;10.00;100413;;;;550373;256;24141;-82
2022/10/26 04:34:07;;;;;;;26.63;15.53;;;10.60;99.90;10.10;100412;;;;563043;251;24158;-81
2022/10/26 04:36:34;;;;;;;25.00;13.50;;;10.70;99.90;10.20;100419;;;;552557;256;24148;-81
2022/10/26 04:39:08;;;;;;;29.87;13.90;;;10.80;99.90;10.20;100423;;;;563437;251;24128;-81
2022/10/26 04:41:32;;;;;;;24.90;14.90;;;10.90;99.90;10.30;100418;;;;552880;256;24157;-81
2022/10/26 04:44:00;;;;;;;31.30;15.70;;;10.90;99.90;10.40;100411;;;;563357;251;24172;-81
2022/10/26 04:46:28;;;;;;;29.97;14.57;;;11.00;99.90;10.40;100415;;;;552348;256;24155;-80
2022/10/26 04:48:56;;;;;;;33.73;16.10;;;11.10;99.90;10.50;100422;;;;562362;251;24136;-80
2022/10/26 04:51:23;;;;;;;28.70;15.60;;;11.10;99.90;10.50;100418;;;;552575;255;24150;-80
2022/10/26 04:53:59;;;;;;;32.03;15.97;;;11.20;99.90;10.60;100420;;;;564097;251;24111;-81
2022/10/26 04:56:27;;;;;;;31.70;20.13;;;11.20;99.90;10.60;100426;;;;573791;247;24227;-80
2022/10/26 04:58:51;;;;;;;34.13;22.17;;;11.30;99.90;10.70;100422;;;;558586;251;35475;-80
2022/10/26 05:01:19;;;;;;;24.17;16.53;;;11.30;99.90;10.70;100426;;;;553255;256;24226;-81
2022/10/26 05:03:56;;;;;;;31.37;16.67;;;11.40;99.90;10.70;100423;;;;563194;251;24168;-81
2022/10/26 05:06:20;;;;;;;31.37;15.73;;;11.40;99.90;10.80;100435;;;;563168;252;24229;-82
2022/10/26 05:08:48;;;;;;;29.57;21.57;;;11.50;99.90;10.80;100427;;;;561112;251;35533;-81
2022/10/26 05:11:16;;;;;;;30.67;16.70;;;11.50;99.90;10.80;100423;;;;553458;256;24136;-83
2022/10/26 05:13:44;;;;;;;19.57;13.73;;;11.50;99.90;10.80;100422;;;;563333;251;24146;-81
2022/10/26 05:16:12;;;;;;;24.80;13.90;;;11.50;99.90;10.80;100417;;;;553387;255;24130;-82
2022/10/26 05:18:40;;;;;;;18.50;12.97;;;11.50;99.90;10.80;100421;;;;563369;251;24166;-84
2022/10/26 05:21:08;;;;;;;22.70;9.37;;;11.50;99.90;10.70;100415;;;;553075;256;24184;-82
2022/10/26 05:23:36;;;;;;;14.90;10.67;;;11.40;99.90;10.60;100413;;;;571998;251;24127;-84
2022/10/26 05:26:04;;;;;;;11.90;8.83;;;11.30;99.90;10.50;100407;;;;553232;256;24163;-82
2022/10/26 05:28:32;;;;;;;16.40;11.27;;;11.20;99.90;10.30;100411;;;;558244;251;35435;-82
2022/10/26 05:31:00;;;;;;;16.90;9.83;;;11.10;99.90;10.20;100408;;;;551735;256;24194;-81
2022/10/26 05:33:27;;;;;;;21.37;9.07;;;10.90;99.90;10.10;100398;;;;561892;251;24151;-80
2022/10/26 05:35:55;;;;;;;14.90;8.77;;;10.80;99.90;10.00;100408;;;;551745;256;24161;-80
2022/10/26 05:38:23;;;;;;;16.03;8.77;;;10.80;99.90;10.00;100413;;;;551755;256;24166;-80
2022/10/26 05:40:51;;;;;;;21.70;9.10;;;10.70;99.90;9.90;100412;;;;561841;251;24153;-81
2022/10/26 05:43:19;;;;;;;19.17;9.00;;;10.60;99.90;9.90;100408;;;;551710;256;24151;-81
2022/10/26 05:45:47;;;;;;;16.30;9.17;;;10.50;99.90;9.80;100416;;;;570142;251;24169;-80
2022/10/26 05:48:15;;;;;;;10.57;8.03;;;10.50;99.90;9.80;100418;;;;551772;256;24145;-81
2022/10/26 05:50:43;;;;;;;14.20;9.47;;;10.40;99.90;9.70;100413;;;;562177;251;24114;-84
2022/10/26 05:53:12;;;;;;;15.53;9.27;;;10.40;99.90;9.70;100418;;;;552074;256;24246;-82
2022/10/26 05:55:43;;;;;;;19.97;10.23;;;10.40;99.90;9.70;100423;;;;550525;255;24129;-82
2022/10/26 05:58:15;;;;;;;17.20;9.17;;;10.30;99.90;9.60;100427;;;;561367;251;24258;-82
2022/10/26 06:01:06;;;;;;;18.60;8.60;;;10.30;99.90;9.60;100426;;;;551573;256;24195;-81
2022/10/26 06:03:38;;;;;;;18.43;9.50;;;10.30;99.90;9.60;100429;;;;554991;255;24138;-81
2022/10/26 06:06:06;;;;;;;17.03;8.93;;;10.30;99.90;9.70;100429;;;;563049;251;24121;-82
2022/10/26 06:08:34;;;;;;;16.53;9.23;;;10.30;99.90;9.70;100439;;;;552552;255;24156;-82
2022/10/26 06:11:02;;;;;;;18.47;9.23;;;10.30;99.90;9.70;100441;;;;563016;251;24166;-81
2022/10/26 06:13:29;;;;;;;16.77;8.97;;;10.30;99.90;9.70;100447;;;;552458;256;24209;-81
2022/10/26 06:16:15;;;;;;;13.17;8.77;;;10.40;99.90;9.70;100448;;;;561311;251;24138;-81
2022/10/26 06:18:55;;;;;;;17.57;8.33;;;10.40;99.90;9.80;100456;;;;552404;256;24129;-82
2022/10/26 06:21:28;;;;;;;15.73;8.90;;;10.40;99.90;9.80;100457;;;;562378;251;24138;-82
2022/10/26 06:24:21;;;;;;;19.17;8.90;;;10.50;99.90;9.80;100453;;;;571013;251;24176;-81
2022/10/26 06:26:46;;;;;;;13.87;8.73;;;10.50;99.90;9.90;100459;;;;561675;251;24189;-81
2022/10/26 06:29:20;;;;;;;15.77;7.30;;;10.60;99.90;9.90;100470;;;;559035;251;24130;-79
2022/10/26 06:31:48;;;;;;;18.20;8.70;;;10.50;99.90;9.90;100470;;;;551932;256;24143;-80
2022/10/26 06:34:19;;;;;;;17.23;8.63;;;10.60;99.90;10.00;100475;;;;562494;251;24129;-82
2022/10/26 06:36:50;;;;;;;15.33;8.63;;;10.60;99.90;10.00;100476;;;;561242;256;24155;-82
2022/10/26 06:39:14;;;;;;;17.30;9.03;;;10.70;99.90;10.10;100476;;;;571701;248;24178;-82
2022/10/26 06:41:42;;;;;;;15.77;7.60;;;10.70;99.90;10.20;100487;;;;561510;252;24271;-81
2022/10/26 06:44:10;;;;;;;13.07;7.47;;;10.80;99.90;10.20;100484;;;;572564;250;24139;-81
2022/10/26 06:46:41;;;;;;;16.87;7.90;;;10.90;99.90;10.30;100492;;;;561586;256;24233;-82
2022/10/26 06:49:27;;;;;;;15.00;7.70;;;11.00;99.90;10.40;100484;;;;552397;256;24189;-82
2022/10/26 06:52:12;;;;;;;13.77;7.93;;;11.00;99.90;10.50;100491;;;;562844;251;24126;-82
2022/10/26 06:54:59;;;;;;;17.73;8.07;;;11.10;99.90;10.60;100488;;;;553130;256;24149;-82
2022/10/26 06:57:23;;;;;;;11.53;7.33;;;11.20;99.90;10.60;100502;;;;552372;255;24172;-81
2022/10/26 07:00:08;;;;;;;8.37;6.10;;;11.40;99.90;10.70;100514;;;;562107;251;24170;-81
2022/10/26 07:02:35;;;;;;;9.87;6.70;;;11.40;99.90;10.90;100511;;;;551848;256;24157;-81
2022/10/26 07:05:03;;;;;;;10.03;6.00;;;11.50;99.90;11.00;100511;;;;552133;256;24151;-81
2022/10/26 07:07:31;;;;;;;9.33;5.63;;;11.70;99.90;11.10;100514;;;;562072;251;24226;-80
2022/10/26 07:09:59;;;;;;;13.57;6.53;;;11.80;99.90;11.20;100512;;;;551780;256;24192;-81
2022/10/26 07:12:27;;;;;;;9.10;5.77;;;11.80;99.90;11.30;100523;;;;552059;256;24149;-81
2022/10/26 07:14:55;;;;;;;15.50;5.33;;;12.00;99.90;11.40;100518;;;;563085;250;24128;-81
2022/10/26 07:17:26;;;;;;;9.47;5.93;;;12.10;99.90;12.10;100530;;;;554208;255;24155;-83
2022/10/26 07:19:51;;;;;;;9.70;5.33;;;12.70;99.90;13.50;100527;;;;553795;255;24267;-82
2022/10/26 07:22:19;;;;;;;6.13;4.53;;;13.90;99.90;16.00;100530;;;;564356;251;24117;-81
2022/10/26 07:24:52;;;;;;;9.03;4.23;;;17.90;99.90;18.00;100535;;;;553676;256;24224;-81
2022/10/26 07:27:18;;;;;;;3.63;3.30;;;17.90;99.90;19.90;100539;;;;553018;256;24104;-81
2022/10/26 07:29:43;;;;;;;5.50;3.47;;;19.80;99.90;21.50;100544;;;;563576;251;24142;-81
2022/10/26 07:32:11;;;;;;;8.13;3.67;;;21.50;99.90;22.70;100534;;;;562872;255;24144;-80
2022/10/26 07:34:39;;;;;;;4.80;3.00;;;22.90;99.90;23.70;100532;;;;552876;256;23184;-80
2022/10/26 07:37:07;;;;;;;3.67;3.00;;;24.00;99.90;24.80;100532;;;;563426;251;24143;-80
2022/10/26 07:39:35;;;;;;;7.00;3.30;;;25.00;99.90;25.60;100535;;;;553278;256;24140;-81
2022/10/26 07:42:03;;;;;;;6.43;3.17;;;25.90;96.90;26.30;100542;;;;552287;256;23197;-81
2022/10/26 07:44:31;;;;;;;5.47;3.03;;;27.30;89.60;27.00;100543;;;;563268;251;24112;-80
2022/10/26 07:47:00;;;;;;;5.53;3.20;;;27.80;85.00;27.40;100546;;;;552611;256;24179;-82
2022/10/26 07:49:28;;;;;;;3.73;2.70;;;27.80;85.00;27.60;100550;;;;552246;256;24189;-81
2022/10/26 07:51:56;;;;;;;7.57;2.80;;;28.10;80.90;27.80;100558;;;;568913;251;23148;-81
2022/10/26 07:54:24;;;;;;;7.13;3.10;;;28.30;78.30;27.90;100553;;;;551878;256;23171;-81
2022/10/26 07:56:52;;;;;;;5.97;2.73;;;28.40;76.10;28.10;100564;;;;551812;256;23173;-82
2022/10/26 07:59:20;;;;;;;6.97;2.93;;;28.60;74.40;28.70;100569;;;;561870;251;23238;-82
2022/10/26 08:01:48;;;;;;;10.10;2.87;;;29.10;72.60;29.50;100580;;;;551585;256;23204;-82
2022/10/26 08:04:15;;;;;;;6.13;2.90;;;29.80;69.70;30.00;100577;;;;551707;252;23185;-82
2022/10/26 08:06:43;;;;;;;5.63;2.80;;;30.40;66.40;30.10;100577;;;;568593;251;23196;-82
2022/10/26 08:09:11;;;;;;;6.10;2.97;;;30.70;65.10;30.40;100595;;;;561211;255;23153;-81
2022/10/26 08:11:39;;;;;;;5.35;3.40;;;31.00;63.20;30.40;100589;;;;551729;256;23145;-81
2022/10/26 08:14:07;;;;;;;11.25;4.65;;;31.00;62.50;30.70;100599;;;;562369;251;24128;-81
2022/10/26 08:16:38;;;;;;;8.00;3.45;;;31.20;61.60;30.00;100595;;;;552471;256;24180;-81
2022/10/26 08:19:03;;;;;;;5.87;3.60;;;30.90;60.00;28.60;100601;;;;553914;256;23201;-81
2022/10/26 08:21:32;;;;;;;6.30;3.63;;;29.20;63.90;28.20;100595;;;;562223;251;23129;-81
2022/10/26 08:24:00;;;;;;;6.20;3.00;;;28.90;65.00;28.20;100596;;;;551594;256;23163;-81
2022/10/26 08:26:29;;;;;;;8.07;3.33;;;29.40;65.10;29.00;100611;;;;552498;255;23197;-81
2022/10/26 08:28:57;;;;;;;4.97;2.93;;;29.40;64.40;29.30;100608;;;;563051;251;23164;-81
2022/10/26 08:31:25;;;;;;;5.85;3.45;;;29.80;63.00;29.10;100615;;;;552445;255;23186;-80
2022/10/26 08:33:53;;;;;;;6.12;3.37;;;29.80;62.50;29.40;100610;;;;552462;255;23166;-80
2022/10/26 08:36:23;;;;;;;6.83;3.23;;;30.00;62.40;29.30;100618;;;;562547;251;28518;-80
2022/10/26 08:38:51;;;;;;;7.07;3.40;;;30.10;61.30;29.60;100621;;;;552475;256;23143;-81
2022/10/26 08:41:34;;;;;;;7.87;3.62;;;30.20;60.80;30.40;100626;;;;552341;256;23174;-81
2022/10/26 08:44:07;;;;;;;5.97;3.53;;;30.90;60.40;30.30;100633;;;;563663;251;23144;-79
2022/10/26 08:46:35;;;;;;;6.40;3.67;;;31.20;59.00;29.40;100638;;;;561776;252;23159;-82
2022/10/26 08:49:23;;;;;;;3.08;2.85;;;30.60;59.40;28.50;100637;;;;551618;255;23167;-82
2022/10/26 08:51:51;;;;;;;5.00;3.00;;;29.90;60.10;28.60;100624;;;;563411;251;23149;-82
2022/10/26 08:54:37;;;;;;;5.37;3.03;;;29.60;60.90;29.20;100633;;;;562783;256;23152;-82
2022/10/26 08:57:10;;;;;;;6.37;2.80;;;29.90;60.30;30.00;100629;;;;553071;256;23160;-83
2022/10/26 08:59:44;;;;;;;4.00;3.10;;;30.50;59.30;30.50;100637;;;;569850;250;23128;-84
2022/10/26 09:02:17;;;;;;;2.60;2.40;;;31.00;58.20;30.80;100641;;;;562474;256;23209;-82
2022/10/26 09:04:42;;;;;;;4.22;3.22;;;31.40;57.60;30.20;100642;;;;561785;251;23165;-81
2022/10/26 09:07:25;;;;;;;4.53;3.20;;;31.20;57.20;29.10;100645;;;;551946;256;23171;-81
2022/10/26 09:10:26;;;;;;;7.05;3.10;;;30.30;57.90;28.20;100644;;;;551937;256;23189;-81
2022/10/26 09:13:04;;;;;;;4.33;3.33;;;29.40;59.60;27.50;100652;;;;564070;251;23183;-81
2022/10/26 09:15:32;;;;;;;5.47;2.90;;;28.50;61.00;26.70;100655;;;;561323;256;23158;-79
2022/10/26 09:18:14;;;;;;;9.37;3.50;;;27.70;62.80;25.80;100659;;;;552198;255;23179;-81
2022/10/26 09:20:45;;;;;;;6.03;3.20;;;26.80;64.40;24.70;100648;;;;562328;251;26252;-80
2022/10/26 09:23:49;;;;;;;7.57;3.67;;;25.80;66.60;23.70;100650;;;;550309;255;24292;-80
2022/10/26 09:26:20;;;;;;;5.20;3.17;;;24.80;69.20;22.70;100661;;;;561937;251;23132;-80
2022/10/26 09:28:51;;;;;;;5.27;3.10;;;23.70;73.00;22.00;100655;;;;562579;251;24133;-81
2022/10/26 09:31:20;;;;;;;6.30;3.07;;;22.90;75.50;21.20;100658;;;;551827;256;24188;-82
2022/10/26 09:33:44;;;;;;;6.30;2.67;;;22.00;77.70;20.50;100656;;;;562413;251;24111;-81
2022/10/26 09:36:17;;;;;;;2.87;2.67;;;21.30;80.20;20.00;100652;;;;551942;256;23193;-80
2022/10/26 09:38:58;;;;;;;5.03;3.27;;;20.70;82.70;19.50;100655;;;;551696;251;24213;-82
2022/10/26 09:41:49;;;;;;;4.73;2.93;;;19.70;87.90;19.20;100661;;;;563348;251;23148;-81
2022/10/26 09:44:24;;;;;;;8.00;3.17;;;19.70;87.80;19.20;100663;;;;552163;255;24182;-81
2022/10/26 09:47:20;;;;;;;4.40;3.07;;;19.60;90.30;19.10;100655;;;;552519;256;24137;-80
2022/10/26 09:50:23;;;;;;;4.30;3.10;;;19.40;91.50;18.90;100664;;;;562949;251;24117;-81
2022/10/26 09:52:50;;;;;;;5.53;3.00;;;19.40;91.50;18.90;100666;;;;553095;256;24120;-81
2022/10/26 09:55:21;;;;;;;5.13;2.50;;;19.40;92.10;18.80;100659;;;;553454;256;24145;-82
2022/10/26 09:57:48;;;;;;;3.47;2.40;;;19.30;92.60;18.80;100673;;;;570047;249;24174;-82
2022/10/26 10:00:19;;;;;;;7.23;2.10;;;19.30;93.00;18.60;100661;;;;553185;256;24200;-82
2022/10/26 10:02:47;;;;;;;3.17;2.30;;;19.20;93.40;18.50;100658;;;;561955;255;24147;-84
2022/10/26 10:05:27;;;;;;;4.80;2.43;;;19.10;93.70;18.30;100665;;;;562913;251;24136;-81
2022/10/26 10:08:16;;;;;;;2.90;2.10;;;19.00;93.90;18.20;100663;;;;552060;256;24188;-81
2022/10/26 10:10:58;;;;;;;5.27;2.20;;;18.90;94.40;18.10;100660;;;;552248;256;24158;-81
2022/10/26 10:13:27;;;;;;;6.50;2.60;;;18.70;95.00;18.00;100650;;;;562087;251;24127;-80
2022/10/26 10:15:55;;;;;;;5.73;2.53;;;18.60;96.70;17.90;100664;;;;561195;255;24176;-79
2022/10/26 10:18:26;;;;;;;5.30;2.30;;;18.50;97.30;17.90;100659;;;;550091;255;24218;-81
2022/10/26 10:20:55;;;;;;;3.60;2.53;;;18.50;97.20;17.80;100659;;;;561868;251;24167;-81
2022/10/26 10:23:31;;;;;;;4.87;2.37;;;18.40;97.80;17.60;100667;;;;562234;255;24163;-82
2022/10/26 10:26:12;;;;;;;5.97;2.30;;;18.20;98.50;17.30;100666;;;;552284;252;24138;-80
2022/10/26 10:28:36;;;;;;;3.20;2.30;;;18.00;99.40;17.10;100669;;;;561755;251;24111;-81
2022/10/26 10:31:04;;;;;;;3.70;2.27;;;17.80;99.90;17.00;100664;;;;551930;256;24158;-80
2022/10/26 10:33:33;;;;;;;4.10;2.27;;;17.60;99.90;17.00;100660;;;;571850;251;24121;-80
2022/10/26 10:36:03;;;;;;;7.87;4.83;;;17.50;99.90;16.90;100665;;;;551234;256;24172;-80
2022/10/26 10:38:30;;;;;;;3.23;2.07;;;17.50;99.90;17.10;100667;;;;571751;251;24190;-80
2022/10/26 10:40:58;;;;;;;5.90;2.00;;;17.50;99.90;17.30;100661;;;;552039;256;27379;-81
2022/10/26 10:43:29;;;;;;;3.87;1.93;;;17.80;99.90;17.50;100672;;;;560186;254;24154;-82
2022/10/26 10:45:54;;;;;;;7.80;2.50;;;18.00;99.90;17.70;100668;;;;562842;251;24181;-83
2022/10/26 10:48:24;;;;;;;3.70;1.93;;;18.20;99.90;17.80;100672;;;;562347;252;24162;-83
2022/10/26 10:51:16;;;;;;;6.07;2.57;;;18.30;99.90;17.60;100672;;;;553743;255;24155;-83
2022/10/26 10:53:48;;;;;;;4.07;2.47;;;18.00;99.90;17.40;100669;;;;563265;251;24107;-82
2022/10/26 10:56:34;;;;;;;7.00;2.20;;;17.90;99.90;17.30;100670;;;;552617;255;24159;-81
2022/10/26 10:59:26;;;;;;;6.83;2.50;;;17.90;99.90;17.40;100677;;;;552533;256;24137;-83
2022/10/26 11:02:25;;;;;;;17.23;9.73;;;17.90;99.90;17.40;100674;;;;563125;251;24135;-81
2022/10/26 11:05:07;;;;;;;7.83;3.57;;;17.90;99.90;17.50;100678;;;;553058;256;24137;-81
2022/10/26 11:07:35;;;;;;;4.83;2.00;;;18.00;99.90;17.40;100674;;;;553006;256;24137;-80
2022/10/26 11:10:03;;;;;;;8.63;2.50;;;18.00;99.90;17.30;100684;;;;562989;251;24127;-80
2022/10/26 11:12:36;;;;;;;4.73;2.70;;;17.90;99.90;17.20;100686;;;;551474;255;24139;-80
2022/10/26 11:15:14;;;;;;;5.97;2.50;;;17.80;99.90;17.20;100686;;;;553606;255;24169;-80
2022/10/26 11:17:47;;;;;;;3.83;2.00;;;17.70;99.90;17.10;100695;;;;563228;251;24109;-82
2022/10/26 11:20:18;;;;;;;4.90;2.20;;;17.70;99.90;17.00;100691;;;;550832;256;25209;-82
2022/10/26 11:22:57;;;;;;;4.97;2.27;;;17.60;99.90;16.90;100692;;;;551524;255;24143;-80
2022/10/26 11:25:31;;;;;;;5.37;2.60;;;17.50;99.90;16.70;100700;;;;563005;251;24131;-80